Terminal Aerodrome Forecast
Issued by NWS

Home | Current Version | Previous Version | Text Only | Print | Product List | Glossary On
Versions: 1 2 3 4 5 6 7 8 9 10 11 12 13 14 15 16 17 18 19 20 21 22 23 24 25 26 27 28 29 30 31 32 33
000
FTAK31 PAFA 061735
TAFAQT
TAF
PAQT 061735Z 0618/0718 VRB03KT P6SM BKN050 BKN070 OVC100
     FM062000 24006KT P6SM BKN030 OVC060
     FM070300 09008KT P6SM BKN025 OVC050=

USA.gov is the U.S. government's official web portal to all federal, state and local government web resources and services.